Oakdale, CA (95361)

11:02 PM PST on November 26, 2014 (GMT -0800)
East Oakdale | Change Station
CLOSE
Current Station
Personal Weather Station
Location: Oakdale, CA
Elevation: 161 ft
Nearby Weather Stations
Active Advisory: Special Statement

Elev 161 ft 37.78 °N, 120.78 °W | Updated 14 seconds ago

Partly Cloudy
Partly Cloudy
48.4 °F
Feels Like 48 °F
N
0.0
Wind Variable Wind from ESE
Gusts 0.0 mph

Today
High -- | Low -- °F
--% Chance of Precip.
Yesterday
High -- | Low -- °F
Precip. -- in
6:54 AM 4:45 PM
Waxing Crescent, 26% visible
Pressure 30.22 in
Visibility 3.0 miles
Clouds Clear
Windchill 48 °F
Dew Point 48 °F
Humidity 99%
Rainfall 0.00 in
Snow Depth Not available.
UV 0 out of 12
Pollen 1.40 out of 12
Air Quality Not available.
Flu Activity Not available.
METAR KMOD 270653Z AUTO 12005KT 3SM BR CLR 08/06 A3022 RMK AO2 SLP234 T00780061

More Conditions Fewer Conditions

Pressure 30.22 in
Visibility 3.0 miles
Clouds Clear
Windchill 48 °F
Dew Point 48 °F
Humidity 99%
Rainfall 0.00 in
Snow Depth Not available.
UV 0 out of 12
Pollen 1.40 out of 12
Air Quality Not available.
Flu Activity Not available.
METAR KMOD 270653Z AUTO 12005KT 3SM BR CLR 08/06 A3022 RMK AO2 SLP234 T00780061

More Conditions Fewer Conditions

10-Day Weather Forecast

Almanac

Astronomy

Nov. 26, 2014 Rise Set
Actual Time
Civil Twilight
Nautical Twilight
Astronomical Twilight
Moon
Length of Visible Light
Length of Day
Tomorrow will be .
, % of the Moon is Illuminated

Today's Extremes

State Highs State Lows

Community

WunderPhotos

Upload Photos

1,773,966 photos uploaded!

WunderBlogs® & News

Nearby

Air Quality

  Air Quality AQ Index Pollutant
Not available.

Snow Depth

Station Depth Elevation

Earthquake Activity

City Distance Mag. Time & Date
Minimum magnitude displayed is 2.5.

Coastal Water Temperatures

Place Temperature

Nearby Weather Stations